Terminal Aerodrome Forecast
Issued by NWS Blacksburg, VA

Current Version | Previous Version | Text Only | Print | Product List | Glossary Off
Versions: 1 2 3 4 5 6 7 8 9 10 11 12 13

000
FTUS41 KRNK 102339
TAFBLF
TAF
KBLF 102339Z 1100/1124 24009KT P6SM SCT100
     FM110300 26009G19KT P6SM FEW140
     FM110900 27010KT P6SM OVC015
     FM112100 23006KT P6SM SCT120=

USA.gov is the U.S. government's official web portal to all federal, state and local government web resources and services.